Latest Weather Observations for Beerburrum

IDQ60901

Issued at 11:11 pm EST Monday 20 February 2017 (issued every 10 minutes, with the page automatically refreshed every 10 minutes)

About weather observations | Map of Brisbane area stations | Latest observations for Brisbane area | Other Formats
Station Details ID: 040284 Name: BEERBURRUM FOREST STATION Lat: -26.96 Lon: 152.96 Height: 48.0 m
Data from the previous 72 hours. | See also: Recent months at Beerburrum
Date/Time
EST
Temp
°C
App
Temp
°C
Dew
Point
°C
Rel
Hum
%
Delta-T
°C
Wind Press
QNH
hPa
Press
MSL
hPa
Rain since
9am
mm
Dir  Spd
km/h
Gust
km/h
Spd
kts
Gust
kts
20/11:00pm 21.5 25.0 19.6 89 1.2 CALM 0 0 0 0 - - 0.0
20/10:30pm 21.9 25.5 19.8 88 1.3 CALM 0 0 0 0 - - 0.0
20/10:00pm 22.3 26.0 20.0 87 1.5 CALM 0 0 0 0 - - 0.0
20/09:30pm 22.6 26.4 20.1 86 1.6 CALM 0 0 0 0 - - 0.0
20/09:00pm 23.0 26.9 20.3 85 1.7 CALM 0 0 0 0 - - 0.0
20/08:30pm 23.1 26.9 20.2 84 1.9 CALM 0 0 0 0 - - 0.0
20/08:00pm 23.3 27.1 20.1 82 2.1 CALM 0 0 0 0 - - 0.0
20/07:30pm 23.5 27.0 19.6 79 2.5 CALM 0 0 0 0 - - 0.0
20/07:00pm 24.2 27.6 19.3 74 3.1 CALM 0 0 0 0 - - 0.0
20/06:30pm 25.4 27.6 19.1 68 4.0 E 6 7 3 4 - - 0.0
20/06:00pm 26.5 28.8 18.6 62 5.0 ESE 4 9 2 5 - - 0.0
20/05:30pm 27.8 29.7 18.5 57 6.0 SE 6 11 3 6 - - 0.0
20/05:00pm 28.8 30.4 18.3 53 6.7 SE 7 17 4 9 - - 0.0
20/04:30pm 29.6 30.3 17.1 47 7.9 ESE 9 19 5 10 - - 0.0
20/04:00pm 29.7 30.2 16.5 45 8.3 SE 9 19 5 10 - - 0.0
20/03:30pm 30.4 31.1 16.0 41 9.0 ESE 7 13 4 7 - - 0.0
20/03:00pm 30.7 32.1 17.4 45 8.5 S 6 11 3 6 - - 0.0
20/02:30pm 30.7 31.5 17.4 45 8.5 SSE 9 13 5 7 - - 0.0
20/02:00pm 30.5 31.0 16.5 43 8.8 ESE 9 17 5 9 - - 0.0
20/01:30pm 29.6 30.0 15.3 41 8.8 SE 7 17 4 9 - - 0.0
20/01:00pm 30.1 31.7 18.2 49 7.6 S 7 13 4 7 - - 0.0
20/12:30pm 30.7 31.5 15.9 40 9.2 SSW 6 19 3 10 - - 0.0
20/12:00pm 29.3 29.5 14.7 41 8.9 S 7 13 4 7 - - 0.0
20/11:30am 28.9 29.7 15.8 45 8.1 S 6 9 3 5 - - 0.0
20/11:00am 28.7 30.3 17.9 52 6.9 S 6 13 3 7 - - 0.0
20/10:30am 27.7 29.5 18.7 58 5.8 SSW 7 11 4 6 - - 0.0
20/10:00am 27.1 28.9 18.4 59 5.6 SW 6 11 3 6 - - 0.0
20/09:30am 25.7 28.0 18.6 65 4.5 SSW 4 7 2 4 - - 0.0
20/09:00am 25.2 27.3 18.2 65 4.4 WSW 4 7 2 4 - - 31.6
20/08:30am 24.9 27.4 19.9 74 3.2 W 6 9 3 5 - - 31.6
20/08:00am 23.7 27.1 19.4 77 2.8 CALM 0 0 0 0 - - 31.6
20/07:30am 23.2 26.9 20.0 82 2.1 CALM 0 0 0 0 - - 31.6
20/07:00am 22.3 26.3 20.6 90 1.1 CALM 0 0 0 0 - - 31.6
20/06:30am 21.3 25.0 19.9 92 0.9 CALM 0 0 0 0 - - 31.6
20/06:00am 20.7 24.1 19.4 92 0.8 CALM 0 0 0 0 - - 31.6
20/05:30am 20.6 23.5 19.1 91 0.9 SW 2 6 1 3 - - 31.6
20/05:00am 21.0 24.5 19.5 91 1.0 CALM 0 0 0 0 - - 31.6
20/04:30am 21.2 24.6 19.3 89 1.2 CALM 0 0 0 0 - - 31.6
20/04:00am 21.6 24.7 19.5 88 1.3 ENE 2 6 1 3 - - 31.6
20/03:30am 22.0 25.4 19.4 85 1.7 CALM 0 0 0 0 - - 31.6
20/03:00am 22.5 24.5 19.1 81 2.2 W 7 13 4 7 - - 31.6
20/02:30am 22.1 25.7 19.8 87 1.5 CALM 0 9 0 5 - - 31.6
20/02:00am 22.2 24.5 19.9 87 1.5 WNW 7 13 4 7 - - 31.6
20/01:30am 21.9 25.3 20.2 90 1.1 WNW 2 9 1 5 - - 31.6
20/01:00am 22.3 25.6 20.8 91 1.0 WSW 4 6 2 3 - - 31.6
20/12:30am 22.4 26.6 21.0 92 0.9 CALM 0 0 0 0 - - 31.6
20/12:00am 22.4 26.2 21.0 92 0.9 N 2 7 1 4 - - 31.6
 
Date/Time
EST
Temp
°C
App
Temp
°C
Dew
Point
°C
Rel
Hum
%
Delta-T
°C
Wind Press
QNH
hPa
Press
MSL
hPa
Rain since
9am
mm
Dir  Spd
km/h
Gust
km/h
Spd
kts
Gust
kts
19/11:30pm 22.4 26.6 20.9 91 1.0 CALM 0 0 0 0 - - 31.6
19/11:00pm 22.3 26.5 20.9 92 0.9 CALM 0 0 0 0 - - 31.6
19/10:30pm 22.4 26.2 21.0 92 0.9 S 2 6 1 3 - - 31.6
19/10:00pm 22.5 25.4 21.1 92 0.9 WSW 7 11 4 6 - - 31.2
19/09:30pm 22.6 26.5 21.2 92 0.9 W 2 7 1 4 - - 31.2
19/09:00pm 22.7 26.3 21.2 91 1.0 ENE 4 7 2 4 - - 31.2
19/08:30pm 22.9 27.3 21.4 91 1.0 CALM 0 4 0 2 - - 30.8
19/08:00pm 22.9 27.3 21.4 91 1.0 CALM 0 0 0 0 - - 30.0
19/07:30pm 22.8 26.8 21.4 92 0.9 S 2 6 1 3 - - 29.8
19/07:00pm 22.8 26.0 21.3 91 1.0 SW 6 15 3 8 - - 29.8
19/06:30pm 22.8 26.8 21.4 92 0.9 ENE 2 7 1 4 - - 28.0
19/06:00pm 22.7 25.3 21.2 91 1.0 NNW 9 15 5 8 - - 26.4
19/05:30pm 23.0 25.9 21.1 89 1.2 WSW 7 11 4 6 - - 13.0
19/05:00pm 23.6 27.1 21.9 90 1.1 W 6 11 3 6 - - 6.0
19/04:30pm 23.4 26.6 21.3 88 1.4 S 6 7 3 4 - - 4.2
19/04:00pm 24.2 27.0 20.9 82 2.2 WSW 7 9 4 5 - - 0.4
19/03:30pm 26.9 27.9 18.7 60 5.3 W 11 20 6 11 - - 0.0
19/03:00pm 30.5 32.1 18.2 47 7.9 NNE 7 17 4 9 - - 0.0
19/02:30pm 31.3 33.0 18.6 46 8.2 NNE 7 17 4 9 - - 0.0
19/02:00pm 32.2 33.7 18.8 45 8.7 NNE 9 17 5 9 - - 0.0
19/01:30pm 33.0 35.2 18.4 42 9.5 SW 4 9 2 5 - - 0.0
19/01:00pm 32.9 33.8 16.7 38 10.3 N 7 13 4 7 - - 0.0
19/12:30pm 32.7 34.1 17.7 40 9.6 NE 7 13 4 7 - - 0.0
19/12:00pm 32.2 33.6 17.7 42 9.3 NNE 7 13 4 7 - - 0.0
19/11:30am 31.5 32.3 16.3 40 9.5 NNW 7 15 4 8 - - 0.0
19/11:00am 31.3 32.6 17.6 44 8.8 NNE 7 15 4 8 - - 0.0
19/10:30am 30.2 30.8 16.9 44 8.4 N 9 15 5 8 - - 0.0
19/10:00am 30.5 31.3 18.2 47 7.9 N 11 19 6 10 - - 0.0
19/09:30am 29.3 30.1 18.1 51 7.2 N 11 20 6 11 - - 0.0
19/09:00am 27.9 28.8 18.3 56 6.1 N 11 20 6 11 - - 0.0
19/08:30am 28.4 29.8 19.6 59 5.7 N 11 19 6 10 - - 0.0
19/08:00am 25.9 26.0 17.5 59 5.3 N 13 19 7 10 - - 0.0
19/07:30am 24.8 26.3 19.0 70 3.7 N 9 15 5 8 - - 0.0
19/07:00am 23.9 25.8 19.0 74 3.1 N 7 13 4 7 - - 0.0
19/06:30am 22.3 25.7 19.3 83 1.9 CALM 0 6 0 3 - - 0.0
19/06:00am 21.6 23.9 18.6 83 1.9 NE 4 7 2 4 - - 0.0
19/05:30am 22.4 25.5 18.6 79 2.4 CALM 0 2 0 1 - - 0.0
19/05:00am 22.4 25.2 18.8 80 2.3 NW 2 6 1 3 - - 0.0
19/04:30am 22.2 25.2 18.4 79 2.4 CALM 0 0 0 0 - - 0.0
19/04:00am 22.6 25.6 18.4 77 2.6 CALM 0 0 0 0 - - 0.0
19/03:30am 22.7 25.0 18.5 77 2.6 WSW 4 7 2 4 - - 0.0
19/03:00am 23.2 26.1 18.1 73 3.2 CALM 0 6 0 3 - - 0.0
19/02:30am 24.0 25.5 18.0 69 3.8 SW 7 11 4 6 - - 0.0
19/02:00am 24.5 26.3 17.5 65 4.4 NW 4 9 2 5 - - 0.0
19/01:30am 24.0 26.5 17.3 66 4.2 CALM 0 0 0 0 - - 0.0
19/01:00am 25.1 26.9 17.3 62 4.9 W 4 9 2 5 - - 0.0
19/12:30am 24.8 26.3 19.0 70 3.7 NW 9 17 5 9 - - 0.0
19/12:00am 24.0 25.9 19.7 77 2.8 NNE 9 15 5 8 - - 0.0
 
Date/Time
EST
Temp
°C
App
Temp
°C
Dew
Point
°C
Rel
Hum
%
Delta-T
°C
Wind Press
QNH
hPa
Press
MSL
hPa
Rain since
9am
mm
Dir  Spd
km/h
Gust
km/h
Spd
kts
Gust
kts
18/11:30pm 24.1 26.5 20.0 78 2.7 N 7 13 4 7 - - 0.0
18/11:00pm 24.3 26.3 20.0 77 2.8 NNE 9 17 5 9 - - 0.0
18/10:30pm 24.5 26.1 20.0 76 2.9 NNE 11 20 6 11 - - 0.0
18/10:00pm 24.7 25.9 20.0 75 3.0 NNE 13 26 7 14 - - 0.0
18/09:30pm 24.8 27.0 20.3 76 2.9 N 9 15 5 8 - - 0.0
18/09:00pm 24.7 27.1 20.0 75 3.0 NNE 7 19 4 10 - - 0.0
18/08:30pm 25.0 27.0 20.0 74 3.2 NNE 9 19 5 10 - - 0.0
18/08:00pm 25.3 26.5 19.9 72 3.5 NNE 13 24 7 13 - - 0.0
18/07:30pm 25.3 26.8 19.7 71 3.6 NNE 11 20 6 11 - - 0.0
18/07:00pm 25.5 26.5 19.4 69 3.9 NNE 13 24 7 13 - - 0.0
18/06:30pm 25.7 27.3 19.1 67 4.2 NNE 9 20 5 11 - - 0.0
18/06:00pm 26.6 27.2 18.5 61 5.2 NNE 13 28 7 15 - - 0.0
18/05:30pm 27.8 28.5 17.9 54 6.3 NNE 11 24 6 13 - - 0.0
18/05:00pm 28.8 29.4 17.7 51 7.0 NE 11 20 6 11 - - 0.0
18/04:30pm 29.8 29.4 16.2 43 8.5 NE 13 32 7 17 - - 0.0
18/04:00pm 30.9 30.3 15.7 39 9.4 NE 13 22 7 12 - - 0.0
18/03:30pm 31.6 30.8 16.0 39 9.8 NE 15 30 8 16 - - 0.0
18/03:00pm 31.2 30.2 15.6 39 9.7 NNE 15 26 8 14 - - 0.0
18/02:30pm 31.5 31.0 15.9 39 9.7 NNE 13 24 7 13 - - 0.0
18/02:00pm 32.7 33.1 17.3 39 9.8 NE 11 19 6 10 - - 0.0
18/01:30pm 32.4 33.9 18.9 44 8.8 NE 9 19 5 10 - - 0.0
18/01:00pm 31.5 31.8 17.8 44 8.8 NNE 13 26 7 14 - - 0.0
18/12:30pm 32.1 32.8 17.9 42 9.1 ENE 11 19 6 10 - - 0.0
18/12:00pm 31.9 31.6 14.5 34 10.7 NE 9 17 5 9 - - 0.0
18/11:30am 31.4 30.9 15.0 37 10.1 N 11 24 6 13 - - 0.0
18/11:00am 31.1 31.1 16.3 41 9.3 NNE 11 17 6 9 - - 0.0
18/10:30am 30.4 31.7 17.1 44 8.4 N 6 17 3 9 - - 0.0
18/10:00am 28.9 29.4 16.5 47 7.7 NNE 9 17 5 9 - - 0.0
18/09:30am 27.8 29.0 18.2 56 6.1 N 9 19 5 10 - - 0.0
18/09:00am 26.4 26.7 16.9 56 5.9 N 11 19 6 10 - - 0.0
18/08:30am 26.2 27.9 18.6 63 4.9 WNW 7 15 4 8 - - 0.0
18/08:00am 25.3 26.4 18.0 64 4.6 N 9 15 5 8 - - 0.0
18/07:30am 23.9 26.2 17.6 68 3.9 NNW 2 7 1 4 - - 0.0
18/07:00am 23.8 25.3 18.0 70 3.6 NW 7 15 4 8 - - 0.0
18/06:30am 21.9 24.3 18.7 82 2.0 NNW 4 7 2 4 - - 0.0
18/06:00am 19.8 21.3 17.6 87 1.4 N 6 7 3 4 - - 0.0
18/05:30am 19.9 21.4 17.7 87 1.4 N 6 9 3 5 - - 0.0
18/05:00am 19.6 21.0 17.9 90 1.0 N 7 11 4 6 - - 0.0
18/04:30am 18.9 20.8 17.6 92 0.8 NNE 4 9 2 5 - - 0.0
18/04:00am 18.8 20.9 17.1 90 1.0 NNW 2 7 1 4 - - 0.0
18/03:30am 19.1 21.3 17.4 90 1.0 N 2 7 1 4 - - 0.0
18/03:00am 19.0 21.5 17.3 90 1.0 CALM 0 0 0 0 - - 0.0
18/02:30am 19.2 21.8 17.5 90 1.0 CALM 0 0 0 0 - - 0.0
18/02:00am 19.3 20.8 17.6 90 1.0 SW 6 9 3 5 - - 0.0
18/01:30am 19.2 21.8 17.5 90 1.0 CALM 0 0 0 0 - - 0.0
18/01:00am 19.4 22.0 17.5 89 1.2 CALM 0 0 0 0 - - 0.0
18/12:30am 19.6 22.2 17.6 88 1.2 CALM 0 0 0 0 - - 0.0
18/12:00am 19.8 22.5 17.8 88 1.2 CALM 0 0 0 0 - - 0.0
 
Date/Time
EST
Temp
°C
App
Temp
°C
Dew
Point
°C
Rel
Hum
%
Delta-T
°C
Wind Press
QNH
hPa
Press
MSL
hPa
Rain since
9am
mm
Dir  Spd
km/h
Gust
km/h
Spd
kts
Gust
kts
17/11:30pm 20.0 22.6 17.6 86 1.5 CALM 0 0 0 0 - - 0.0

Latest Capital City Observations: Canberra | Sydney | Melbourne | Brisbane | Adelaide | Perth | Hobart | Darwin

Other Formats:

Comma delimited format used in spreadsheet applications
http://www.bom.gov.au/fwo/IDQ60901/IDQ60901.95566.axf

JavaScript Object Notation format (JSON) in row-major order
http://www.bom.gov.au/fwo/IDQ60901/IDQ60901.95566.json